createdAt,value
2022-10-25T00:02:20.452Z,20.20
2022-10-25T00:04:47.966Z,20.20
2022-10-25T00:07:15.441Z,20.20
2022-10-25T00:09:42.965Z,20.20
2022-10-25T00:12:10.307Z,20.20
2022-10-25T00:14:37.832Z,20.20
2022-10-25T00:17:05.223Z,20.20
2022-10-25T00:19:32.585Z,20.20
2022-10-25T00:21:59.974Z,20.20
2022-10-25T00:24:27.461Z,20.30
2022-10-25T00:26:54.888Z,20.30
2022-10-25T00:29:25.146Z,20.30
2022-10-25T00:31:52.479Z,20.30
2022-10-25T00:34:19.806Z,20.30
2022-10-25T00:36:47.158Z,20.40
2022-10-25T00:39:14.524Z,20.40
2022-10-25T00:41:41.937Z,20.40
2022-10-25T00:44:40.014Z,20.40
2022-10-25T00:47:26.664Z,20.40
2022-10-25T00:50:02.777Z,20.40
2022-10-25T00:52:33.486Z,20.40
2022-10-25T00:55:02.067Z,20.40
2022-10-25T00:58:12.764Z,20.40
2022-10-25T01:00:40.379Z,20.40
2022-10-25T01:03:07.996Z,20.30
2022-10-25T01:05:36.011Z,20.20
2022-10-25T01:08:05.231Z,20.20
2022-10-25T01:10:32.781Z,20.20
2022-10-25T01:13:03.886Z,20.20
2022-10-25T01:15:45.953Z,20.20
2022-10-25T01:18:20.381Z,20.20
2022-10-25T01:20:47.587Z,20.20
2022-10-25T01:23:42.338Z,20.20
2022-10-25T01:26:37.587Z,20.20
2022-10-25T01:29:43.180Z,20.10
2022-10-25T01:32:23.912Z,20.10
2022-10-25T01:34:59.565Z,20.00
2022-10-25T01:37:40.180Z,20.00
2022-10-25T01:40:23.314Z,20.00
2022-10-25T01:43:04.759Z,20.00
2022-10-25T01:46:04.793Z,20.00
2022-10-25T01:48:42.071Z,20.00
2022-10-25T01:51:12.247Z,20.00
2022-10-25T01:53:51.081Z,20.00
2022-10-25T01:56:41.618Z,20.00
2022-10-25T01:59:36.201Z,20.00
2022-10-25T02:02:13.707Z,19.90
2022-10-25T02:04:56.367Z,19.90
2022-10-25T02:07:51.352Z,19.90
2022-10-25T02:10:54.666Z,19.90
2022-10-25T02:13:37.909Z,19.90
2022-10-25T02:16:13.662Z,19.90
2022-10-25T02:18:45.641Z,19.90
2022-10-25T02:21:15.068Z,19.80
2022-10-25T02:23:43.179Z,19.80
2022-10-25T02:26:11.541Z,19.80
2022-10-25T02:28:41.069Z,19.80
2022-10-25T02:31:12.830Z,19.80
2022-10-25T02:33:40.156Z,19.80
2022-10-25T02:36:19.735Z,19.80
2022-10-25T02:38:48.722Z,19.80
2022-10-25T02:41:17.137Z,19.80
2022-10-25T02:43:44.595Z,19.70
2022-10-25T02:46:16.149Z,19.80
2022-10-25T02:48:43.836Z,19.80
2022-10-25T02:51:12.376Z,19.80
2022-10-25T02:53:40.576Z,19.80
2022-10-25T02:56:09.033Z,19.80
2022-10-25T02:58:38.725Z,19.80
2022-10-25T03:01:07.038Z,19.80
2022-10-25T03:03:35.331Z,19.90
2022-10-25T03:06:02.664Z,19.80
2022-10-25T03:08:30.554Z,19.80
2022-10-25T03:10:58.918Z,19.70
2022-10-25T03:13:26.518Z,19.70
2022-10-25T03:15:53.914Z,19.80
2022-10-25T03:18:22.344Z,19.80
2022-10-25T03:20:50.200Z,19.70
2022-10-25T03:23:18.078Z,19.70
2022-10-25T03:25:45.424Z,19.70
2022-10-25T03:28:12.761Z,19.70
2022-10-25T03:30:43.176Z,19.70
2022-10-25T03:33:10.645Z,19.70
2022-10-25T03:35:37.912Z,19.70
2022-10-25T03:38:05.280Z,19.60
2022-10-25T03:40:32.613Z,19.60
2022-10-25T03:42:59.924Z,19.60
2022-10-25T03:45:27.276Z,19.60
2022-10-25T03:47:54.617Z,19.60
2022-10-25T03:50:22.043Z,19.60
2022-10-25T03:52:49.340Z,19.60
2022-10-25T03:55:17.151Z,19.60
2022-10-25T03:57:44.743Z,19.70
2022-10-25T04:00:13.040Z,19.70
2022-10-25T04:02:40.437Z,19.60
2022-10-25T04:05:08.176Z,19.50
2022-10-25T04:07:35.553Z,19.40
2022-10-25T04:10:03.868Z,19.40
2022-10-25T04:12:31.746Z,19.40
2022-10-25T04:14:59.360Z,19.40
2022-10-25T04:17:26.684Z,19.40
2022-10-25T04:19:53.965Z,19.30
2022-10-25T04:22:21.349Z,19.30
2022-10-25T04:24:48.836Z,19.30
2022-10-25T04:27:16.467Z,19.30
2022-10-25T04:29:43.747Z,19.30
2022-10-25T04:32:11.742Z,19.30
2022-10-25T04:34:39.040Z,19.30
2022-10-25T04:37:06.396Z,19.30
2022-10-25T04:39:33.688Z,19.30
2022-10-25T04:42:01.057Z,19.30
2022-10-25T04:44:28.348Z,19.30
2022-10-25T04:46:55.699Z,19.30
2022-10-25T04:49:23.057Z,19.30
2022-10-25T04:54:18.612Z,19.30
2022-10-25T04:56:45.950Z,19.30
2022-10-25T04:59:13.341Z,19.30
2022-10-25T05:01:40.744Z,19.20
2022-10-25T05:04:08.168Z,19.20
2022-10-25T05:06:35.482Z,19.20
2022-10-25T05:09:04.204Z,19.10
2022-10-25T05:11:32.637Z,19.20
2022-10-25T05:14:00.328Z,19.10
2022-10-25T05:16:27.766Z,19.20
2022-10-25T05:18:55.790Z,19.20
2022-10-25T05:21:30.216Z,19.20
2022-10-25T05:24:01.646Z,19.20
2022-10-25T05:26:30.454Z,19.20
2022-10-25T05:28:58.134Z,19.20
2022-10-25T05:31:30.427Z,19.20
2022-10-25T05:33:59.954Z,19.10
2022-10-25T05:36:32.765Z,19.10
2022-10-25T05:39:01.231Z,19.10
2022-10-25T05:41:30.819Z,19.10
2022-10-25T05:44:00.768Z,19.10
2022-10-25T05:46:28.201Z,19.10
2022-10-25T05:48:55.570Z,19.20
2022-10-25T05:51:33.422Z,19.20
2022-10-25T05:54:04.880Z,19.30
2022-10-25T05:56:33.519Z,19.30
2022-10-25T05:59:09.335Z,19.40
2022-10-25T06:01:42.936Z,19.40
2022-10-25T06:04:11.394Z,19.40
2022-10-25T06:06:40.369Z,19.50
2022-10-25T06:09:08.284Z,19.60
2022-10-25T06:11:36.593Z,19.60
2022-10-25T06:14:05.174Z,19.60
2022-10-25T06:16:32.732Z,19.60
2022-10-25T06:19:00.025Z,19.60
2022-10-25T06:21:29.006Z,19.70
2022-10-25T06:23:57.864Z,19.70
2022-10-25T06:26:29.917Z,19.80
2022-10-25T06:29:00.579Z,19.80
2022-10-25T06:31:29.569Z,19.90
2022-10-25T06:33:58.542Z,19.90
2022-10-25T06:36:27.589Z,20.00
2022-10-25T06:38:55.046Z,20.10
2022-10-25T06:41:24.945Z,20.10
2022-10-25T06:43:52.314Z,20.10
2022-10-25T06:46:28.602Z,20.10
2022-10-25T06:48:57.597Z,20.10
2022-10-25T06:51:26.469Z,20.20
2022-10-25T06:53:55.270Z,20.20
2022-10-25T06:56:22.952Z,20.20
2022-10-25T06:58:50.632Z,20.30
2022-10-25T07:01:19.616Z,20.30
2022-10-25T07:03:47.563Z,20.30
2022-10-25T07:06:21.960Z,20.30
2022-10-25T07:09:01.533Z,20.30
2022-10-25T07:11:32.817Z,20.30
2022-10-25T07:14:01.196Z,20.30
2022-10-25T07:16:29.052Z,20.30
2022-10-25T07:19:00.360Z,20.30
2022-10-25T07:21:29.297Z,20.30
2022-10-25T07:23:56.683Z,20.30
2022-10-25T07:26:27.884Z,20.30
2022-10-25T07:28:57.173Z,20.30
2022-10-25T07:31:30.316Z,20.40
2022-10-25T07:33:59.600Z,20.50
2022-10-25T07:36:27.044Z,20.50
2022-10-25T07:38:54.847Z,20.50
2022-10-25T07:41:22.403Z,20.50
2022-10-25T07:43:49.715Z,20.50
2022-10-25T07:46:17.552Z,20.50
2022-10-25T07:48:44.830Z,20.50
2022-10-25T07:51:14.036Z,20.60
2022-10-25T07:53:41.711Z,20.50
2022-10-25T07:56:20.462Z,20.50
2022-10-25T07:58:51.982Z,20.50
2022-10-25T08:01:22.411Z,20.50
2022-10-25T08:03:50.804Z,20.50
2022-10-25T08:06:18.733Z,20.50
2022-10-25T08:08:46.073Z,20.50
2022-10-25T08:11:13.431Z,20.50
2022-10-25T08:13:40.992Z,20.50
2022-10-25T08:16:08.813Z,20.50
2022-10-25T08:18:36.155Z,20.40
2022-10-25T08:21:04.705Z,20.50
2022-10-25T08:23:32.725Z,20.50
2022-10-25T08:26:01.405Z,20.50
2022-10-25T08:28:31.297Z,20.60
2022-10-25T08:31:01.036Z,20.60
2022-10-25T08:33:29.198Z,20.70
2022-10-25T08:35:59.538Z,20.80
2022-10-25T08:38:26.878Z,20.80
2022-10-25T08:41:16.085Z,20.90
2022-10-25T08:46:34.280Z,20.90
2022-10-25T08:49:26.691Z,21.00
2022-10-25T08:51:56.349Z,21.10
2022-10-25T08:54:35.117Z,21.00
2022-10-25T08:57:16.036Z,21.00
2022-10-25T08:59:47.985Z,21.10
2022-10-25T09:02:36.532Z,21.00
2022-10-25T09:05:09.525Z,21.10
2022-10-25T09:08:03.330Z,21.20
2022-10-25T09:10:39.404Z,21.40
2022-10-25T09:13:18.060Z,21.50
2022-10-25T09:15:50.939Z,21.50
2022-10-25T09:18:19.398Z,21.50
2022-10-25T09:20:51.427Z,21.40
2022-10-25T09:23:32.595Z,21.30
2022-10-25T09:26:04.658Z,21.20
2022-10-25T09:28:52.564Z,21.30
2022-10-25T09:31:23.782Z,21.40
2022-10-25T09:34:03.151Z,21.40
2022-10-25T09:36:40.784Z,21.40
2022-10-25T09:39:20.325Z,21.50
2022-10-25T09:41:51.388Z,21.60
2022-10-25T09:44:40.448Z,21.80
2022-10-25T09:47:29.911Z,22.00
2022-10-25T09:50:07.127Z,22.40
2022-10-25T09:52:51.171Z,22.80
2022-10-25T09:55:47.410Z,23.10
2022-10-25T09:58:41.876Z,23.30
2022-10-25T10:01:17.037Z,23.20
2022-10-25T10:03:47.090Z,23.00
2022-10-25T10:06:25.608Z,23.00
2022-10-25T10:09:07.027Z,23.80
2022-10-25T10:11:35.908Z,24.60
2022-10-25T10:14:25.647Z,24.70
2022-10-25T10:16:56.718Z,25.20
2022-10-25T10:19:30.084Z,26.40
2022-10-25T10:22:00.802Z,26.70
2022-10-25T10:24:34.823Z,27.40
2022-10-25T10:27:08.545Z,28.50
2022-10-25T10:29:57.369Z,29.10
2022-10-25T10:32:29.478Z,30.20
2022-10-25T10:34:58.333Z,31.30
2022-10-25T10:37:27.485Z,32.10
2022-10-25T10:39:57.645Z,32.80
2022-10-25T10:42:35.251Z,33.60
2022-10-25T10:45:08.552Z,34.30
2022-10-25T10:47:46.138Z,34.70
2022-10-25T10:50:25.776Z,35.00
2022-10-25T10:53:00.151Z,35.30
2022-10-25T10:55:32.491Z,35.40
2022-10-25T10:58:25.210Z,35.60
2022-10-25T11:01:06.612Z,35.90
2022-10-25T11:03:49.119Z,36.40
2022-10-25T11:06:35.198Z,37.20
2022-10-25T11:09:21.825Z,37.80
2022-10-25T11:12:12.294Z,36.80
2022-10-25T11:14:39.686Z,34.50
2022-10-25T11:17:17.838Z,32.70
2022-10-25T11:19:53.665Z,30.90
2022-10-25T11:22:39.107Z,30.10
2022-10-25T11:25:12.361Z,30.30
2022-10-25T11:28:01.141Z,30.70
2022-10-25T11:30:38.634Z,31.40
2022-10-25T11:33:45.126Z,33.10
2022-10-25T11:36:22.146Z,34.80
2022-10-25T11:39:01.205Z,35.90
2022-10-25T11:41:53.466Z,36.30
2022-10-25T11:44:27.036Z,37.10
2022-10-25T11:47:43.042Z,37.70
2022-10-25T11:50:10.709Z,38.30
2022-10-25T11:53:00.021Z,39.00
2022-10-25T11:55:40.358Z,39.20
2022-10-25T11:58:30.014Z,39.40
2022-10-25T12:01:23.623Z,39.30
2022-10-25T12:03:59.686Z,39.30
2022-10-25T12:06:52.105Z,39.60
2022-10-25T12:09:37.919Z,39.90
2022-10-25T12:12:10.908Z,39.70
2022-10-25T12:14:42.947Z,39.60
2022-10-25T12:17:27.793Z,39.50
2022-10-25T12:19:58.310Z,39.50
2022-10-25T12:22:30.853Z,39.00
2022-10-25T12:25:18.221Z,38.60
2022-10-25T12:27:51.037Z,38.30
2022-10-25T12:30:20.536Z,38.00
2022-10-25T12:33:04.335Z,38.20
2022-10-25T12:35:40.412Z,38.20
2022-10-25T12:38:15.536Z,37.90
2022-10-25T12:40:47.631Z,37.40
2022-10-25T12:43:31.368Z,37.30
2022-10-25T12:46:10.786Z,37.30
2022-10-25T12:48:50.048Z,38.10
2022-10-25T12:51:34.615Z,38.60
2022-10-25T12:54:04.940Z,38.40
2022-10-25T12:57:03.615Z,36.40
2022-10-25T12:59:41.834Z,34.90
2022-10-25T13:02:21.106Z,33.50
2022-10-25T13:05:06.708Z,32.30
2022-10-25T13:07:35.838Z,31.30
2022-10-25T13:10:15.505Z,30.50
2022-10-25T13:12:57.682Z,29.80
2022-10-25T13:15:25.019Z,29.20
2022-10-25T13:18:07.178Z,28.70
2022-10-25T13:20:34.423Z,28.30
2022-10-25T13:23:21.706Z,28.00
2022-10-25T13:25:48.964Z,27.70
2022-10-25T13:28:16.229Z,27.50
2022-10-25T13:30:44.423Z,27.40
2022-10-25T13:33:24.466Z,27.20
2022-10-25T13:35:51.693Z,27.10
2022-10-25T13:38:25.315Z,27.00
2022-10-25T13:41:15.443Z,26.90
2022-10-25T13:44:02.404Z,26.80
2022-10-25T13:46:34.021Z,26.70
2022-10-25T13:49:04.425Z,26.60
2022-10-25T13:51:32.992Z,26.60
2022-10-25T13:54:06.098Z,26.50
2022-10-25T13:56:37.096Z,26.50
2022-10-25T13:59:24.438Z,26.50
2022-10-25T14:01:53.382Z,26.40
2022-10-25T14:04:32.500Z,26.40
2022-10-25T14:07:37.416Z,26.40
2022-10-25T14:10:06.666Z,26.30
2022-10-25T14:12:35.800Z,26.30
2022-10-25T14:15:39.713Z,26.10
2022-10-25T14:18:13.721Z,26.10
2022-10-25T14:20:45.935Z,26.00
2022-10-25T14:23:25.672Z,26.00
2022-10-25T14:25:58.745Z,25.80
2022-10-25T14:28:32.017Z,25.70
2022-10-25T14:31:05.165Z,25.60
2022-10-25T14:33:35.506Z,25.60
2022-10-25T14:36:05.146Z,25.50
2022-10-25T14:39:00.251Z,25.40
2022-10-25T14:41:34.845Z,25.50
2022-10-25T14:44:02.621Z,25.50
2022-10-25T14:46:30.562Z,25.50
2022-10-25T14:48:59.613Z,25.40
2022-10-25T14:51:35.120Z,25.40
2022-10-25T14:54:20.045Z,25.40
2022-10-25T14:56:54.786Z,25.30
2022-10-25T14:59:32.916Z,25.30
2022-10-25T15:02:06.021Z,25.20
2022-10-25T15:04:35.233Z,25.10
2022-10-25T15:07:03.152Z,25.10
2022-10-25T15:09:46.912Z,24.90
2022-10-25T15:12:16.034Z,24.90
2022-10-25T15:14:43.593Z,24.90
2022-10-25T15:17:23.761Z,24.80
2022-10-25T15:20:17.169Z,24.70
2022-10-25T15:22:48.121Z,24.70
2022-10-25T15:25:24.446Z,24.70
2022-10-25T15:27:54.791Z,24.60
2022-10-25T15:30:43.804Z,24.60
2022-10-25T15:33:18.363Z,24.50
2022-10-25T15:36:03.439Z,24.50
2022-10-25T15:39:06.164Z,24.40
2022-10-25T15:41:23.670Z,24.40
2022-10-25T15:43:52.155Z,24.30
2022-10-25T15:46:34.072Z,24.30
2022-10-25T15:49:09.227Z,24.10
2022-10-25T15:51:40.559Z,24.20
2022-10-25T15:54:21.657Z,24.10
2022-10-25T15:56:50.104Z,24.10
2022-10-25T15:59:17.762Z,24.00
2022-10-25T16:01:48.556Z,24.00
2022-10-25T16:04:18.427Z,23.90
2022-10-25T16:06:46.645Z,23.90
2022-10-25T16:09:13.945Z,23.90
2022-10-25T16:11:46.941Z,23.80
2022-10-25T16:14:26.436Z,23.80
2022-10-25T16:16:53.999Z,23.70
2022-10-25T16:19:26.318Z,23.70
2022-10-25T16:21:53.836Z,23.70
2022-10-25T16:24:21.272Z,23.60
2022-10-25T16:26:50.078Z,23.60
2022-10-25T16:29:22.781Z,23.60
2022-10-25T16:31:50.768Z,23.50
2022-10-25T16:34:19.553Z,23.40
2022-10-25T16:36:48.700Z,23.40
2022-10-25T16:39:16.420Z,23.40
2022-10-25T16:41:45.661Z,23.40
2022-10-25T16:44:15.695Z,23.40
2022-10-25T16:46:42.977Z,23.30
2022-10-25T16:49:10.971Z,23.30
2022-10-25T16:51:40.133Z,23.30
2022-10-25T16:54:08.177Z,23.20
2022-10-25T16:56:35.769Z,23.20
2022-10-25T16:59:03.578Z,23.10
2022-10-25T17:01:41.260Z,23.00
2022-10-25T17:04:11.431Z,23.00
2022-10-25T17:06:42.686Z,23.00
2022-10-25T17:09:11.369Z,22.90
2022-10-25T17:11:38.772Z,22.90
2022-10-25T17:14:06.517Z,22.80
2022-10-25T17:16:33.967Z,22.80
2022-10-25T17:19:03.252Z,22.80
2022-10-25T17:21:33.206Z,22.70
2022-10-25T17:24:00.644Z,22.70
2022-10-25T17:26:28.176Z,22.80
2022-10-25T17:28:57.014Z,22.80
2022-10-25T17:31:24.709Z,22.80
2022-10-25T17:33:51.957Z,22.70
2022-10-25T17:36:19.403Z,22.70
2022-10-25T17:38:46.868Z,22.70
2022-10-25T17:41:14.924Z,22.70
2022-10-25T17:43:42.646Z,22.60
2022-10-25T17:46:24.541Z,22.50
2022-10-25T17:49:01.895Z,22.40
2022-10-25T17:51:30.596Z,22.30
2022-10-25T17:53:58.022Z,22.30
2022-10-25T17:56:26.950Z,22.20
2022-10-25T17:58:55.465Z,22.20
2022-10-25T18:01:26.032Z,22.10
2022-10-25T18:03:54.811Z,22.10
2022-10-25T18:06:23.826Z,22.10
2022-10-25T18:08:56.165Z,22.00
2022-10-25T18:11:25.978Z,22.00
2022-10-25T18:13:56.338Z,22.00
2022-10-25T18:16:27.559Z,22.00
2022-10-25T18:19:02.976Z,21.90
2022-10-25T18:21:31.836Z,21.90
2022-10-25T18:24:04.991Z,21.80
2022-10-25T18:26:34.055Z,21.80
2022-10-25T18:29:01.420Z,21.70
2022-10-25T18:31:28.894Z,21.70
2022-10-25T18:33:58.752Z,21.60
2022-10-25T18:36:27.568Z,21.60
2022-10-25T18:38:55.401Z,21.50
2022-10-25T18:41:28.438Z,21.50
2022-10-25T18:43:56.380Z,21.50
2022-10-25T18:46:25.291Z,21.50
2022-10-25T18:48:53.734Z,21.40
2022-10-25T18:51:23.069Z,21.40
2022-10-25T18:53:54.844Z,21.40
2022-10-25T18:56:22.679Z,21.40
2022-10-25T18:58:50.597Z,21.40
2022-10-25T19:01:22.224Z,21.30
2022-10-25T19:03:49.919Z,21.30
2022-10-25T19:06:18.266Z,21.30
2022-10-25T19:08:45.654Z,21.30
2022-10-25T19:11:13.899Z,21.30
2022-10-25T19:13:41.482Z,21.20
2022-10-25T19:16:09.980Z,21.30
2022-10-25T19:18:37.780Z,21.20
2022-10-25T19:21:07.922Z,21.20
2022-10-25T19:23:35.869Z,21.30
2022-10-25T19:26:04.988Z,21.30
2022-10-25T19:28:33.152Z,21.30
2022-10-25T19:31:08.664Z,21.30
2022-10-25T19:33:36.468Z,21.40
2022-10-25T19:36:06.260Z,21.40
2022-10-25T19:38:35.238Z,21.40
2022-10-25T19:41:05.173Z,21.30
2022-10-25T19:43:33.109Z,21.30
2022-10-25T19:46:02.620Z,21.30
2022-10-25T19:48:30.412Z,21.20
2022-10-25T19:51:07.961Z,21.20
2022-10-25T19:53:35.441Z,21.20
2022-10-25T19:56:12.616Z,21.20
2022-10-25T19:58:40.724Z,21.20
2022-10-25T20:01:11.825Z,21.10
2022-10-25T20:03:40.153Z,21.10
2022-10-25T20:06:17.530Z,21.10
2022-10-25T20:08:47.739Z,21.00
2022-10-25T20:11:16.821Z,21.00
2022-10-25T20:13:44.907Z,21.00
2022-10-25T20:16:13.814Z,21.00
2022-10-25T20:18:42.328Z,21.00
2022-10-25T20:21:18.872Z,20.90
2022-10-25T20:23:50.921Z,20.90
2022-10-25T20:26:35.827Z,20.90
2022-10-25T20:29:06.031Z,20.90
2022-10-25T20:31:34.540Z,20.90
2022-10-25T20:34:02.653Z,20.90
2022-10-25T20:36:30.382Z,20.80
2022-10-25T20:38:57.737Z,20.80
2022-10-25T20:41:27.243Z,20.80
2022-10-25T20:43:56.964Z,20.80
2022-10-25T20:46:26.085Z,20.80
2022-10-25T20:48:53.940Z,20.80
2022-10-25T20:51:21.551Z,20.80
2022-10-25T20:53:49.681Z,20.70
2022-10-25T20:56:18.828Z,20.70
2022-10-25T20:58:46.398Z,20.70
2022-10-25T21:01:14.062Z,20.70
2022-10-25T21:03:41.995Z,20.70
2022-10-25T21:06:14.350Z,20.60
2022-10-25T21:08:41.769Z,20.60
2022-10-25T21:11:12.326Z,20.60
2022-10-25T21:13:39.704Z,20.60
2022-10-25T21:16:08.707Z,20.60
2022-10-25T21:18:37.267Z,20.50
2022-10-25T21:21:10.765Z,20.50
2022-10-25T21:23:38.139Z,20.50
2022-10-25T21:26:07.504Z,20.50
2022-10-25T21:28:40.223Z,20.60
2022-10-25T21:31:15.967Z,20.50
2022-10-25T21:33:51.297Z,20.50
2022-10-25T21:36:20.223Z,20.50
2022-10-25T21:38:47.902Z,20.50
2022-10-25T21:41:20.978Z,20.50
2022-10-25T21:43:49.079Z,20.50
2022-10-25T21:46:17.935Z,20.50
2022-10-25T21:48:47.912Z,20.60
2022-10-25T21:51:15.481Z,20.60
2022-10-25T21:53:43.221Z,20.50
2022-10-25T21:56:13.181Z,20.60
2022-10-25T21:58:42.170Z,20.60
2022-10-25T22:01:11.107Z,20.60
2022-10-25T22:03:39.709Z,20.50
2022-10-25T22:06:10.972Z,20.50
2022-10-25T22:08:39.035Z,20.50
2022-10-25T22:11:13.731Z,20.50
2022-10-25T22:13:41.916Z,20.50
2022-10-25T22:16:12.624Z,20.40
2022-10-25T22:18:40.164Z,20.40
2022-10-25T22:21:12.384Z,20.40
2022-10-25T22:23:40.016Z,20.40
2022-10-25T22:26:09.880Z,20.40
2022-10-25T22:28:40.686Z,20.40
2022-10-25T22:31:15.171Z,20.40
2022-10-25T22:33:43.797Z,20.30
2022-10-25T22:36:19.146Z,20.30
2022-10-25T22:38:47.227Z,20.20
2022-10-25T22:41:16.905Z,20.20
2022-10-25T22:43:45.040Z,20.20
2022-10-25T22:46:34.162Z,20.20
2022-10-25T22:49:06.606Z,20.20
2022-10-25T22:51:34.103Z,20.10
2022-10-25T22:54:01.502Z,20.10
2022-10-25T22:56:30.924Z,20.10
2022-10-25T22:59:00.619Z,20.10
2022-10-25T23:01:30.303Z,20.00
2022-10-25T23:03:58.992Z,20.00
2022-10-25T23:06:36.137Z,19.90
2022-10-25T23:09:07.027Z,19.90
2022-10-25T23:11:36.356Z,19.80
2022-10-25T23:14:05.146Z,19.80
2022-10-25T23:16:32.506Z,19.80
2022-10-25T23:18:59.969Z,19.80
2022-10-25T23:21:30.187Z,19.80
2022-10-25T23:23:59.705Z,19.80
2022-10-25T23:26:32.877Z,19.80
2022-10-25T23:29:01.139Z,19.80
2022-10-25T23:31:29.793Z,19.80
2022-10-25T23:33:59.269Z,19.70
2022-10-25T23:36:29.530Z,19.80
2022-10-25T23:38:57.954Z,19.80
2022-10-25T23:41:25.375Z,19.80
2022-10-25T23:43:52.730Z,19.80
2022-10-25T23:46:20.164Z,19.80
2022-10-25T23:48:47.676Z,19.80
2022-10-25T23:51:17.107Z,19.80
2022-10-25T23:53:45.559Z,19.70
2022-10-25T23:56:14.284Z,19.70
2022-10-25T23:58:41.926Z,19.70
